sensor_id;sensor_type;location;lat;lon;timestamp;temperature;humidity
67820;DHT22;54618;52.018;5.576;2024-03-02T00:00:07;8.70;76.50
67820;DHT22;54618;52.018;5.576;2024-03-02T00:02:45;8.70;75.60
67820;DHT22;54618;52.018;5.576;2024-03-02T00:05:19;8.70;75.50
67820;DHT22;54618;52.018;5.576;2024-03-02T00:07:52;8.70;76.00
67820;DHT22;54618;52.018;5.576;2024-03-02T00:10:20;8.70;76.20
67820;DHT22;54618;52.018;5.576;2024-03-02T00:12:48;8.70;76.30
67820;DHT22;54618;52.018;5.576;2024-03-02T00:18:04;8.70;76.60
67820;DHT22;54618;52.018;5.576;2024-03-02T00:20:30;8.70;76.50
67820;DHT22;54618;52.018;5.576;2024-03-02T00:23:15;8.70;76.60
67820;DHT22;54618;52.018;5.576;2024-03-02T00:25:53;8.70;76.00
67820;DHT22;54618;52.018;5.576;2024-03-02T00:28:22;8.70;76.60
67820;DHT22;54618;52.018;5.576;2024-03-02T00:30:55;8.70;76.70
67820;DHT22;54618;52.018;5.576;2024-03-02T00:33:23;8.70;77.00
67820;DHT22;54618;52.018;5.576;2024-03-02T00:35:49;8.70;77.10
67820;DHT22;54618;52.018;5.576;2024-03-02T00:38:15;8.60;77.40
67820;DHT22;54618;52.018;5.576;2024-03-02T00:40:45;8.60;77.70
67820;DHT22;54618;52.018;5.576;2024-03-02T00:46:05;8.60;78.00
67820;DHT22;54618;52.018;5.576;2024-03-02T00:48:31;8.50;78.30
67820;DHT22;54618;52.018;5.576;2024-03-02T00:50:58;8.50;78.40
67820;DHT22;54618;52.018;5.576;2024-03-02T00:53:24;8.50;78.20
67820;DHT22;54618;52.018;5.576;2024-03-02T00:55:52;8.60;78.20
67820;DHT22;54618;52.018;5.576;2024-03-02T00:58:17;8.60;78.10
67820;DHT22;54618;52.018;5.576;2024-03-02T01:00:43;8.60;78.10
67820;DHT22;54618;52.018;5.576;2024-03-02T01:03:08;8.60;78.20
67820;DHT22;54618;52.018;5.576;2024-03-02T01:05:36;8.60;78.40
67820;DHT22;54618;52.018;5.576;2024-03-02T01:08:01;8.60;78.50
67820;DHT22;54618;52.018;5.576;2024-03-02T01:10:27;8.60;78.70
67820;DHT22;54618;52.018;5.576;2024-03-02T01:12:52;8.50;78.80
67820;DHT22;54618;52.018;5.576;2024-03-02T01:15:18;8.50;79.00
67820;DHT22;54618;52.018;5.576;2024-03-02T01:17:44;8.50;79.20
67820;DHT22;54618;52.018;5.576;2024-03-02T01:20:10;8.40;79.20
67820;DHT22;54618;52.018;5.576;2024-03-02T01:22:36;8.40;79.30
67820;DHT22;54618;52.018;5.576;2024-03-02T01:25:03;8.40;79.50
67820;DHT22;54618;52.018;5.576;2024-03-02T01:27:28;8.40;79.80
67820;DHT22;54618;52.018;5.576;2024-03-02T01:29:54;8.40;80.00
67820;DHT22;54618;52.018;5.576;2024-03-02T01:32:20;8.30;80.20
67820;DHT22;54618;52.018;5.576;2024-03-02T01:34:45;8.30;80.90
67820;DHT22;54618;52.018;5.576;2024-03-02T01:37:14;8.30;80.70
67820;DHT22;54618;52.018;5.576;2024-03-02T01:39:39;8.20;80.70
67820;DHT22;54618;52.018;5.576;2024-03-02T01:42:06;8.20;80.90
67820;DHT22;54618;52.018;5.576;2024-03-02T01:44:31;8.20;81.10
67820;DHT22;54618;52.018;5.576;2024-03-02T01:46:57;8.10;81.30
67820;DHT22;54618;52.018;5.576;2024-03-02T01:49:23;8.10;81.50
67820;DHT22;54618;52.018;5.576;2024-03-02T01:51:48;8.10;81.70
67820;DHT22;54618;52.018;5.576;2024-03-02T01:54:14;8.00;81.60
67820;DHT22;54618;52.018;5.576;2024-03-02T01:56:40;8.00;81.70
67820;DHT22;54618;52.018;5.576;2024-03-02T01:59:06;8.00;81.90
67820;DHT22;54618;52.018;5.576;2024-03-02T02:01:31;8.00;81.90
67820;DHT22;54618;52.018;5.576;2024-03-02T02:03:57;8.00;81.90
67820;DHT22;54618;52.018;5.576;2024-03-02T02:06:23;7.90;82.20
67820;DHT22;54618;52.018;5.576;2024-03-02T02:08:48;7.90;82.20
67820;DHT22;54618;52.018;5.576;2024-03-02T02:11:17;7.90;82.20
67820;DHT22;54618;52.018;5.576;2024-03-02T02:13:43;7.90;82.30
67820;DHT22;54618;52.018;5.576;2024-03-02T02:16:09;7.90;82.40
67820;DHT22;54618;52.018;5.576;2024-03-02T02:18:35;7.80;82.40
67820;DHT22;54618;52.018;5.576;2024-03-02T02:21:01;7.90;82.40
67820;DHT22;54618;52.018;5.576;2024-03-02T02:23:27;7.80;82.30
67820;DHT22;54618;52.018;5.576;2024-03-02T02:25:53;7.90;82.40
67820;DHT22;54618;52.018;5.576;2024-03-02T02:28:18;7.90;82.50
67820;DHT22;54618;52.018;5.576;2024-03-02T02:30:44;7.80;82.40
67820;DHT22;54618;52.018;5.576;2024-03-02T02:33:09;7.80;82.40
67820;DHT22;54618;52.018;5.576;2024-03-02T02:35:35;7.80;82.60
67820;DHT22;54618;52.018;5.576;2024-03-02T02:38:02;7.80;82.80
67820;DHT22;54618;52.018;5.576;2024-03-02T02:40:28;7.80;82.80
67820;DHT22;54618;52.018;5.576;2024-03-02T02:42:57;7.80;82.80
67820;DHT22;54618;52.018;5.576;2024-03-02T02:45:24;7.70;82.90
67820;DHT22;54618;52.018;5.576;2024-03-02T02:47:50;7.70;83.00
67820;DHT22;54618;52.018;5.576;2024-03-02T02:50:16;7.70;83.20
67820;DHT22;54618;52.018;5.576;2024-03-02T02:52:44;7.70;83.20
67820;DHT22;54618;52.018;5.576;2024-03-02T02:55:11;7.70;83.30
67820;DHT22;54618;52.018;5.576;2024-03-02T02:57:42;7.60;83.30
67820;DHT22;54618;52.018;5.576;2024-03-02T03:00:15;7.60;83.50
67820;DHT22;54618;52.018;5.576;2024-03-02T03:02:48;7.60;83.50
67820;DHT22;54618;52.018;5.576;2024-03-02T03:05:15;7.60;83.70
67820;DHT22;54618;52.018;5.576;2024-03-02T03:07:41;7.60;83.70
67820;DHT22;54618;52.018;5.576;2024-03-02T03:10:08;7.60;83.80
67820;DHT22;54618;52.018;5.576;2024-03-02T03:12:34;7.60;83.80
67820;DHT22;54618;52.018;5.576;2024-03-02T03:15:00;7.60;84.00
67820;DHT22;54618;52.018;5.576;2024-03-02T03:17:26;7.60;84.10
67820;DHT22;54618;52.018;5.576;2024-03-02T03:19:52;7.60;84.10
67820;DHT22;54618;52.018;5.576;2024-03-02T03:22:18;7.50;84.30
67820;DHT22;54618;52.018;5.576;2024-03-02T03:24:44;7.50;84.30
67820;DHT22;54618;52.018;5.576;2024-03-02T03:27:10;7.50;84.20
67820;DHT22;54618;52.018;5.576;2024-03-02T03:29:37;7.50;84.40
67820;DHT22;54618;52.018;5.576;2024-03-02T03:32:02;7.50;84.30
67820;DHT22;54618;52.018;5.576;2024-03-02T03:34:32;7.40;84.70
67820;DHT22;54618;52.018;5.576;2024-03-02T03:36:58;7.40;84.70
67820;DHT22;54618;52.018;5.576;2024-03-02T03:39:23;7.40;84.70
67820;DHT22;54618;52.018;5.576;2024-03-02T03:41:49;7.40;84.70
67820;DHT22;54618;52.018;5.576;2024-03-02T03:44:14;7.40;84.60
67820;DHT22;54618;52.018;5.576;2024-03-02T03:46:40;7.40;84.70
67820;DHT22;54618;52.018;5.576;2024-03-02T03:49:06;7.30;85.20
67820;DHT22;54618;52.018;5.576;2024-03-02T03:51:31;7.30;84.90
67820;DHT22;54618;52.018;5.576;2024-03-02T03:53:57;7.30;84.70
67820;DHT22;54618;52.018;5.576;2024-03-02T03:56:22;7.30;84.70
67820;DHT22;54618;52.018;5.576;2024-03-02T03:58:48;7.40;84.70
67820;DHT22;54618;52.018;5.576;2024-03-02T04:01:14;7.30;84.60
67820;DHT22;54618;52.018;5.576;2024-03-02T04:03:39;7.30;84.50
67820;DHT22;54618;52.018;5.576;2024-03-02T04:06:05;7.30;84.50
67820;DHT22;54618;52.018;5.576;2024-03-02T04:08:30;7.30;84.50
67820;DHT22;54618;52.018;5.576;2024-03-02T04:10:56;7.30;84.70
67820;DHT22;54618;52.018;5.576;2024-03-02T04:13:22;7.20;84.60
67820;DHT22;54618;52.018;5.576;2024-03-02T04:15:47;7.20;84.40
67820;DHT22;54618;52.018;5.576;2024-03-02T04:18:13;7.20;84.60
67820;DHT22;54618;52.018;5.576;2024-03-02T04:20:38;7.20;84.60
67820;DHT22;54618;52.018;5.576;2024-03-02T04:23:04;7.20;84.40
67820;DHT22;54618;52.018;5.576;2024-03-02T04:25:30;7.20;84.40
67820;DHT22;54618;52.018;5.576;2024-03-02T04:27:55;7.20;84.30
67820;DHT22;54618;52.018;5.576;2024-03-02T04:30:21;7.20;84.20
67820;DHT22;54618;52.018;5.576;2024-03-02T04:32:46;7.20;84.10
67820;DHT22;54618;52.018;5.576;2024-03-02T04:35:13;7.30;84.70
67820;DHT22;54618;52.018;5.576;2024-03-02T04:37:39;7.30;84.60
67820;DHT22;54618;52.018;5.576;2024-03-02T04:40:05;7.20;83.80
67820;DHT22;54618;52.018;5.576;2024-03-02T04:42:34;7.20;84.10
67820;DHT22;54618;52.018;5.576;2024-03-02T04:45:00;7.20;83.80
67820;DHT22;54618;52.018;5.576;2024-03-02T04:47:26;7.20;83.80
67820;DHT22;54618;52.018;5.576;2024-03-02T04:49:51;7.20;83.60
67820;DHT22;54618;52.018;5.576;2024-03-02T04:52:17;7.20;84.20
67820;DHT22;54618;52.018;5.576;2024-03-02T04:54:43;7.30;83.70
67820;DHT22;54618;52.018;5.576;2024-03-02T04:57:27;7.20;83.60
67820;DHT22;54618;52.018;5.576;2024-03-02T04:59:52;7.20;83.70
67820;DHT22;54618;52.018;5.576;2024-03-02T05:02:18;7.20;83.70
67820;DHT22;54618;52.018;5.576;2024-03-02T05:04:43;7.20;83.60
67820;DHT22;54618;52.018;5.576;2024-03-02T05:07:09;7.30;83.60
67820;DHT22;54618;52.018;5.576;2024-03-02T05:09:35;7.30;83.40
67820;DHT22;54618;52.018;5.576;2024-03-02T05:12:01;7.30;83.30
67820;DHT22;54618;52.018;5.576;2024-03-02T05:14:46;7.30;83.20
67820;DHT22;54618;52.018;5.576;2024-03-02T05:17:11;7.30;83.20
67820;DHT22;54618;52.018;5.576;2024-03-02T05:19:37;7.30;83.20
67820;DHT22;54618;52.018;5.576;2024-03-02T05:22:04;7.30;83.20
67820;DHT22;54618;52.018;5.576;2024-03-02T05:24:29;7.30;83.30
67820;DHT22;54618;52.018;5.576;2024-03-02T05:26:55;7.30;83.20
67820;DHT22;54618;52.018;5.576;2024-03-02T05:29:21;7.30;83.20
67820;DHT22;54618;52.018;5.576;2024-03-02T05:31:47;7.20;83.20
67820;DHT22;54618;52.018;5.576;2024-03-02T05:34:13;7.20;83.30
67820;DHT22;54618;52.018;5.576;2024-03-02T05:36:38;7.20;83.60
67820;DHT22;54618;52.018;5.576;2024-03-02T05:39:05;7.20;83.60
67820;DHT22;54618;52.018;5.576;2024-03-02T05:41:34;7.20;83.70
67820;DHT22;54618;52.018;5.576;2024-03-02T05:44:00;7.20;83.70
67820;DHT22;54618;52.018;5.576;2024-03-02T05:46:25;7.20;83.70
67820;DHT22;54618;52.018;5.576;2024-03-02T05:48:52;7.20;83.80
67820;DHT22;54618;52.018;5.576;2024-03-02T05:51:17;7.10;83.60
67820;DHT22;54618;52.018;5.576;2024-03-02T05:53:43;7.10;84.10
67820;DHT22;54618;52.018;5.576;2024-03-02T05:56:09;7.00;84.30
67820;DHT22;54618;52.018;5.576;2024-03-02T05:58:34;7.00;84.00
67820;DHT22;54618;52.018;5.576;2024-03-02T06:01:19;7.00;84.00
67820;DHT22;54618;52.018;5.576;2024-03-02T06:03:44;6.80;84.30
67820;DHT22;54618;52.018;5.576;2024-03-02T06:06:10;6.80;84.20
67820;DHT22;54618;52.018;5.576;2024-03-02T06:08:36;6.80;84.20
67820;DHT22;54618;52.018;5.576;2024-03-02T06:11:01;6.70;84.30
67820;DHT22;54618;52.018;5.576;2024-03-02T06:13:27;6.60;84.30
67820;DHT22;54618;52.018;5.576;2024-03-02T06:15:53;6.60;84.40
67820;DHT22;54618;52.018;5.576;2024-03-02T06:18:18;6.50;84.60
67820;DHT22;54618;52.018;5.576;2024-03-02T06:20:44;6.50;84.90
67820;DHT22;54618;52.018;5.576;2024-03-02T06:23:10;6.40;84.80
67820;DHT22;54618;52.018;5.576;2024-03-02T06:25:35;6.40;84.70
67820;DHT22;54618;52.018;5.576;2024-03-02T06:28:01;6.40;84.70
67820;DHT22;54618;52.018;5.576;2024-03-02T06:30:26;6.40;84.70
67820;DHT22;54618;52.018;5.576;2024-03-02T06:32:52;6.30;84.60
67820;DHT22;54618;52.018;5.576;2024-03-02T06:35:17;6.30;85.00
67820;DHT22;54618;52.018;5.576;2024-03-02T06:37:43;6.30;84.70
67820;DHT22;54618;52.018;5.576;2024-03-02T06:40:09;6.40;84.90
67820;DHT22;54618;52.018;5.576;2024-03-02T06:42:35;6.40;84.70
67820;DHT22;54618;52.018;5.576;2024-03-02T06:45:02;6.40;84.90
67820;DHT22;54618;52.018;5.576;2024-03-02T06:47:28;6.50;84.70
67820;DHT22;54618;52.018;5.576;2024-03-02T06:49:53;6.50;84.30
67820;DHT22;54618;52.018;5.576;2024-03-02T06:52:19;6.60;83.80
67820;DHT22;54618;52.018;5.576;2024-03-02T06:54:46;6.60;83.50
67820;DHT22;54618;52.018;5.576;2024-03-02T06:57:12;6.60;83.30
67820;DHT22;54618;52.018;5.576;2024-03-02T06:59:37;6.70;83.10
67820;DHT22;54618;52.018;5.576;2024-03-02T07:02:03;6.70;83.10
67820;DHT22;54618;52.018;5.576;2024-03-02T07:04:29;6.70;83.00
67820;DHT22;54618;52.018;5.576;2024-03-02T07:06:54;6.70;83.00
67820;DHT22;54618;52.018;5.576;2024-03-02T07:09:20;6.80;83.00
67820;DHT22;54618;52.018;5.576;2024-03-02T07:11:48;6.80;82.80
67820;DHT22;54618;52.018;5.576;2024-03-02T07:14:14;6.90;82.90
67820;DHT22;54618;52.018;5.576;2024-03-02T07:16:40;7.00;82.80
67820;DHT22;54618;52.018;5.576;2024-03-02T07:19:06;7.10;82.70
67820;DHT22;54618;52.018;5.576;2024-03-02T07:21:32;7.20;82.70
67820;DHT22;54618;52.018;5.576;2024-03-02T07:23:58;7.20;82.50
67820;DHT22;54618;52.018;5.576;2024-03-02T07:26:25;7.40;82.40
67820;DHT22;54618;52.018;5.576;2024-03-02T07:28:51;7.40;82.20
67820;DHT22;54618;52.018;5.576;2024-03-02T07:31:17;7.60;82.20
67820;DHT22;54618;52.018;5.576;2024-03-02T07:33:45;7.70;82.20
67820;DHT22;54618;52.018;5.576;2024-03-02T07:36:14;7.80;82.30
67820;DHT22;54618;52.018;5.576;2024-03-02T07:38:39;7.90;82.20
67820;DHT22;54618;52.018;5.576;2024-03-02T07:41:06;8.00;82.00
67820;DHT22;54618;52.018;5.576;2024-03-02T07:43:32;8.20;81.80
67820;DHT22;54618;52.018;5.576;2024-03-02T07:45:58;8.30;81.70
67820;DHT22;54618;52.018;5.576;2024-03-02T07:48:25;8.40;81.60
67820;DHT22;54618;52.018;5.576;2024-03-02T07:50:50;8.60;81.70
67820;DHT22;54618;52.018;5.576;2024-03-02T07:53:16;8.80;81.60
67820;DHT22;54618;52.018;5.576;2024-03-02T07:55:42;8.90;81.30
67820;DHT22;54618;52.018;5.576;2024-03-02T07:58:08;9.00;81.10
67820;DHT22;54618;52.018;5.576;2024-03-02T08:00:34;9.10;81.10
67820;DHT22;54618;52.018;5.576;2024-03-02T08:03:01;9.20;80.70
67820;DHT22;54618;52.018;5.576;2024-03-02T08:05:29;9.20;81.10
67820;DHT22;54618;52.018;5.576;2024-03-02T08:07:55;9.20;81.30
67820;DHT22;54618;52.018;5.576;2024-03-02T08:10:20;9.20;81.10
67820;DHT22;54618;52.018;5.576;2024-03-02T08:12:46;9.20;81.50
67820;DHT22;54618;52.018;5.576;2024-03-02T08:15:12;9.20;81.60
67820;DHT22;54618;52.018;5.576;2024-03-02T08:17:40;9.20;81.80
67820;DHT22;54618;52.018;5.576;2024-03-02T08:20:11;9.20;81.60
67820;DHT22;54618;52.018;5.576;2024-03-02T08:22:37;9.20;81.80
67820;DHT22;54618;52.018;5.576;2024-03-02T08:25:03;9.20;82.00
67820;DHT22;54618;52.018;5.576;2024-03-02T08:27:28;9.10;81.70
67820;DHT22;54618;52.018;5.576;2024-03-02T08:29:54;9.10;82.40
67820;DHT22;54618;52.018;5.576;2024-03-02T08:32:20;9.10;82.70
67820;DHT22;54618;52.018;5.576;2024-03-02T08:34:45;9.10;82.40
67820;DHT22;54618;52.018;5.576;2024-03-02T08:37:11;9.10;82.80
67820;DHT22;54618;52.018;5.576;2024-03-02T08:39:37;9.10;82.80
67820;DHT22;54618;52.018;5.576;2024-03-02T08:42:02;9.10;82.50
67820;DHT22;54618;52.018;5.576;2024-03-02T08:44:29;9.20;82.20
67820;DHT22;54618;52.018;5.576;2024-03-02T08:46:55;9.30;82.60
67820;DHT22;54618;52.018;5.576;2024-03-02T08:49:21;9.40;82.70
67820;DHT22;54618;52.018;5.576;2024-03-02T08:51:47;9.60;82.10
67820;DHT22;54618;52.018;5.576;2024-03-02T08:54:23;9.70;82.00
67820;DHT22;54618;52.018;5.576;2024-03-02T08:56:49;9.90;81.40
67820;DHT22;54618;52.018;5.576;2024-03-02T08:59:15;10.00;80.50
67820;DHT22;54618;52.018;5.576;2024-03-02T09:01:41;10.10;80.90
67820;DHT22;54618;52.018;5.576;2024-03-02T09:04:07;10.20;81.50
67820;DHT22;54618;52.018;5.576;2024-03-02T09:06:34;10.30;80.60
67820;DHT22;54618;52.018;5.576;2024-03-02T09:09:00;10.40;80.70
67820;DHT22;54618;52.018;5.576;2024-03-02T09:11:26;10.50;80.50
67820;DHT22;54618;52.018;5.576;2024-03-02T09:13:52;10.60;80.70
67820;DHT22;54618;52.018;5.576;2024-03-02T09:16:18;10.70;80.70
67820;DHT22;54618;52.018;5.576;2024-03-02T09:18:44;10.70;80.40
67820;DHT22;54618;52.018;5.576;2024-03-02T09:21:10;10.90;80.70
67820;DHT22;54618;52.018;5.576;2024-03-02T09:23:36;11.00;81.00
67820;DHT22;54618;52.018;5.576;2024-03-02T09:26:01;11.10;80.40
67820;DHT22;54618;52.018;5.576;2024-03-02T09:28:28;11.20;80.70
67820;DHT22;54618;52.018;5.576;2024-03-02T09:30:54;11.30;79.60
67820;DHT22;54618;52.018;5.576;2024-03-02T09:33:19;11.40;80.40
67820;DHT22;54618;52.018;5.576;2024-03-02T09:35:45;11.40;80.00
67820;DHT22;54618;52.018;5.576;2024-03-02T09:38:11;11.60;79.60
67820;DHT22;54618;52.018;5.576;2024-03-02T09:40:36;11.70;79.80
67820;DHT22;54618;52.018;5.576;2024-03-02T09:43:02;11.70;80.20
67820;DHT22;54618;52.018;5.576;2024-03-02T09:45:29;11.80;80.60
67820;DHT22;54618;52.018;5.576;2024-03-02T09:47:55;12.00;79.90
67820;DHT22;54618;52.018;5.576;2024-03-02T09:50:20;12.10;80.10
67820;DHT22;54618;52.018;5.576;2024-03-02T09:52:49;12.10;79.70
67820;DHT22;54618;52.018;5.576;2024-03-02T09:55:15;12.10;80.00
67820;DHT22;54618;52.018;5.576;2024-03-02T09:57:43;12.20;80.40
67820;DHT22;54618;52.018;5.576;2024-03-02T10:00:10;12.40;80.30
67820;DHT22;54618;52.018;5.576;2024-03-02T10:02:43;12.40;79.70
67820;DHT22;54618;52.018;5.576;2024-03-02T10:05:09;12.50;79.00
67820;DHT22;54618;52.018;5.576;2024-03-02T10:07:35;12.50;79.20
67820;DHT22;54618;52.018;5.576;2024-03-02T10:10:15;12.50;79.60
67820;DHT22;54618;52.018;5.576;2024-03-02T10:12:41;12.60;79.20
67820;DHT22;54618;52.018;5.576;2024-03-02T10:15:07;12.70;79.30
67820;DHT22;54618;52.018;5.576;2024-03-02T10:17:34;12.80;78.70
67820;DHT22;54618;52.018;5.576;2024-03-02T10:20:26;12.90;77.90
67820;DHT22;54618;52.018;5.576;2024-03-02T10:22:55;12.90;72.10
67820;DHT22;54618;52.018;5.576;2024-03-02T10:25:33;13.00;78.60
67820;DHT22;54618;52.018;5.576;2024-03-02T10:28:00;13.00;73.50
67820;DHT22;54618;52.018;5.576;2024-03-02T10:30:27;13.00;77.20
67820;DHT22;54618;52.018;5.576;2024-03-02T10:32:54;12.90;76.40
67820;DHT22;54618;52.018;5.576;2024-03-02T10:35:22;13.00;78.30
67820;DHT22;54618;52.018;5.576;2024-03-02T10:37:49;13.10;78.00
67820;DHT22;54618;52.018;5.576;2024-03-02T10:40:15;13.30;77.90
67820;DHT22;54618;52.018;5.576;2024-03-02T10:42:42;13.30;77.70
67820;DHT22;54618;52.018;5.576;2024-03-02T10:45:09;13.40;77.30
67820;DHT22;54618;52.018;5.576;2024-03-02T10:47:37;13.50;77.30
67820;DHT22;54618;52.018;5.576;2024-03-02T10:50:04;13.50;77.30
67820;DHT22;54618;52.018;5.576;2024-03-02T10:52:37;13.40;76.40
67820;DHT22;54618;52.018;5.576;2024-03-02T10:55:03;13.40;76.00
67820;DHT22;54618;52.018;5.576;2024-03-02T10:57:53;13.40;76.90
67820;DHT22;54618;52.018;5.576;2024-03-02T11:00:20;13.50;66.40
67820;DHT22;54618;52.018;5.576;2024-03-02T11:02:52;13.50;76.10
67820;DHT22;54618;52.018;5.576;2024-03-02T11:05:28;13.50;75.60
67820;DHT22;54618;52.018;5.576;2024-03-02T11:08:00;13.50;74.10
67820;DHT22;54618;52.018;5.576;2024-03-02T11:10:36;13.60;75.50
67820;DHT22;54618;52.018;5.576;2024-03-02T11:13:05;13.60;73.70
67820;DHT22;54618;52.018;5.576;2024-03-02T11:15:35;13.70;75.30
67820;DHT22;54618;52.018;5.576;2024-03-02T11:18:04;13.70;75.80
67820;DHT22;54618;52.018;5.576;2024-03-02T11:20:31;13.70;74.40
67820;DHT22;54618;52.018;5.576;2024-03-02T11:22:57;13.70;74.50
67820;DHT22;54618;52.018;5.576;2024-03-02T11:25:26;13.70;73.70
67820;DHT22;54618;52.018;5.576;2024-03-02T11:33:03;13.80;73.50
67820;DHT22;54618;52.018;5.576;2024-03-02T11:35:45;13.90;74.50
67820;DHT22;54618;52.018;5.576;2024-03-02T11:38:14;14.00;74.50
67820;DHT22;54618;52.018;5.576;2024-03-02T11:40:40;14.10;74.60
67820;DHT22;54618;52.018;5.576;2024-03-02T11:43:07;14.20;74.80
67820;DHT22;54618;52.018;5.576;2024-03-02T11:45:33;14.10;71.70
67820;DHT22;54618;52.018;5.576;2024-03-02T11:47:59;14.00;74.50
67820;DHT22;54618;52.018;5.576;2024-03-02T11:52:58;14.10;69.20
67820;DHT22;54618;52.018;5.576;2024-03-02T11:55:26;14.10;73.60
67820;DHT22;54618;52.018;5.576;2024-03-02T11:57:54;14.10;72.80
67820;DHT22;54618;52.018;5.576;2024-03-02T12:00:20;14.10;72.80
67820;DHT22;54618;52.018;5.576;2024-03-02T12:02:47;14.10;72.20
67820;DHT22;54618;52.018;5.576;2024-03-02T12:05:25;14.10;72.60
67820;DHT22;54618;52.018;5.576;2024-03-02T12:07:59;14.10;73.50
67820;DHT22;54618;52.018;5.576;2024-03-02T12:10:28;14.10;71.60
67820;DHT22;54618;52.018;5.576;2024-03-02T12:13:03;14.10;70.80
67820;DHT22;54618;52.018;5.576;2024-03-02T12:15:35;14.10;71.80
67820;DHT22;54618;52.018;5.576;2024-03-02T12:18:05;14.10;72.60
67820;DHT22;54618;52.018;5.576;2024-03-02T12:20:32;14.10;72.40
67820;DHT22;54618;52.018;5.576;2024-03-02T12:23:00;14.10;71.10
67820;DHT22;54618;52.018;5.576;2024-03-02T12:25:26;14.10;71.60
67820;DHT22;54618;52.018;5.576;2024-03-02T12:27:55;14.00;70.10
67820;DHT22;54618;52.018;5.576;2024-03-02T12:30:21;14.10;72.10
67820;DHT22;54618;52.018;5.576;2024-03-02T12:32:47;14.30;72.00
67820;DHT22;54618;52.018;5.576;2024-03-02T12:35:14;14.30;71.40
67820;DHT22;54618;52.018;5.576;2024-03-02T12:37:51;14.40;71.60
67820;DHT22;54618;52.018;5.576;2024-03-02T12:40:18;14.40;71.00
67820;DHT22;54618;52.018;5.576;2024-03-02T12:42:46;14.50;71.70
67820;DHT22;54618;52.018;5.576;2024-03-02T12:45:13;14.50;68.90
67820;DHT22;54618;52.018;5.576;2024-03-02T12:47:42;14.40;70.10
67820;DHT22;54618;52.018;5.576;2024-03-02T12:50:09;14.10;67.00
67820;DHT22;54618;52.018;5.576;2024-03-02T12:52:35;14.00;70.20
67820;DHT22;54618;52.018;5.576;2024-03-02T12:55:03;14.00;70.80
67820;DHT22;54618;52.018;5.576;2024-03-02T12:57:30;13.90;70.70
67820;DHT22;54618;52.018;5.576;2024-03-02T13:00:06;13.80;70.40
67820;DHT22;54618;52.018;5.576;2024-03-02T13:02:36;13.80;71.00
67820;DHT22;54618;52.018;5.576;2024-03-02T13:05:02;13.80;70.10
67820;DHT22;54618;52.018;5.576;2024-03-02T13:07:29;13.80;69.50
67820;DHT22;54618;52.018;5.576;2024-03-02T13:09:55;13.80;70.70
67820;DHT22;54618;52.018;5.576;2024-03-02T13:12:22;13.70;69.80
67820;DHT22;54618;52.018;5.576;2024-03-02T13:14:49;13.70;69.60
67820;DHT22;54618;52.018;5.576;2024-03-02T13:17:17;13.80;70.60
67820;DHT22;54618;52.018;5.576;2024-03-02T13:19:55;13.80;69.90
67820;DHT22;54618;52.018;5.576;2024-03-02T13:22:21;13.90;65.40
67820;DHT22;54618;52.018;5.576;2024-03-02T13:24:51;14.00;69.80
67820;DHT22;54618;52.018;5.576;2024-03-02T13:27:17;13.90;68.40
67820;DHT22;54618;52.018;5.576;2024-03-02T13:29:46;13.80;68.50
67820;DHT22;54618;52.018;5.576;2024-03-02T13:32:16;13.70;68.80
67820;DHT22;54618;52.018;5.576;2024-03-02T13:34:42;13.80;68.70
67820;DHT22;54618;52.018;5.576;2024-03-02T13:37:09;13.70;68.40
67820;DHT22;54618;52.018;5.576;2024-03-02T13:39:35;13.80;69.50
67820;DHT22;54618;52.018;5.576;2024-03-02T13:42:10;13.90;70.10
67820;DHT22;54618;52.018;5.576;2024-03-02T13:44:37;13.90;67.60
67820;DHT22;54618;52.018;5.576;2024-03-02T13:47:03;13.80;68.10
67820;DHT22;54618;52.018;5.576;2024-03-02T13:49:28;13.80;68.10
67820;DHT22;54618;52.018;5.576;2024-03-02T13:52:00;13.80;68.10
67820;DHT22;54618;52.018;5.576;2024-03-02T13:54:26;13.80;68.50
67820;DHT22;54618;52.018;5.576;2024-03-02T13:56:52;13.80;68.20
67820;DHT22;54618;52.018;5.576;2024-03-02T13:59:17;13.90;68.70
67820;DHT22;54618;52.018;5.576;2024-03-02T14:01:44;13.90;67.70
67820;DHT22;54618;52.018;5.576;2024-03-02T14:04:10;13.80;67.70
67820;DHT22;54618;52.018;5.576;2024-03-02T14:06:35;13.70;68.50
67820;DHT22;54618;52.018;5.576;2024-03-02T14:09:01;13.70;69.10
67820;DHT22;54618;52.018;5.576;2024-03-02T14:11:27;13.70;69.20
67820;DHT22;54618;52.018;5.576;2024-03-02T14:13:52;13.80;69.00
67820;DHT22;54618;52.018;5.576;2024-03-02T14:16:20;13.90;69.20
67820;DHT22;54618;52.018;5.576;2024-03-02T14:18:46;14.10;69.20
67820;DHT22;54618;52.018;5.576;2024-03-02T14:21:11;14.10;68.30
67820;DHT22;54618;52.018;5.576;2024-03-02T14:23:37;14.30;68.70
67820;DHT22;54618;52.018;5.576;2024-03-02T14:26:03;14.30;67.60
67820;DHT22;54618;52.018;5.576;2024-03-02T14:28:28;14.30;67.00
67820;DHT22;54618;52.018;5.576;2024-03-02T14:30:54;14.30;67.70
67820;DHT22;54618;52.018;5.576;2024-03-02T14:33:20;14.30;67.10
67820;DHT22;54618;52.018;5.576;2024-03-02T14:35:46;14.30;67.60
67820;DHT22;54618;52.018;5.576;2024-03-02T14:38:12;14.20;67.30
67820;DHT22;54618;52.018;5.576;2024-03-02T14:40:38;14.30;68.10
67820;DHT22;54618;52.018;5.576;2024-03-02T14:43:04;14.30;68.30
67820;DHT22;54618;52.018;5.576;2024-03-02T14:45:29;14.30;67.50
67820;DHT22;54618;52.018;5.576;2024-03-02T14:47:55;14.20;67.50
67820;DHT22;54618;52.018;5.576;2024-03-02T14:50:21;14.20;67.50
67820;DHT22;54618;52.018;5.576;2024-03-02T14:52:47;14.20;67.50
67820;DHT22;54618;52.018;5.576;2024-03-02T14:55:13;14.10;66.90
67820;DHT22;54618;52.018;5.576;2024-03-02T14:57:38;14.10;66.90
67820;DHT22;54618;52.018;5.576;2024-03-02T15:00:04;14.00;67.00
67820;DHT22;54618;52.018;5.576;2024-03-02T15:02:33;14.00;67.10
67820;DHT22;54618;52.018;5.576;2024-03-02T15:04:59;13.90;66.60
67820;DHT22;54618;52.018;5.576;2024-03-02T15:07:25;13.80;67.00
67820;DHT22;54618;52.018;5.576;2024-03-02T15:09:50;13.80;66.00
67820;DHT22;54618;52.018;5.576;2024-03-02T15:12:17;13.70;66.40
67820;DHT22;54618;52.018;5.576;2024-03-02T15:14:43;13.70;67.00
67820;DHT22;54618;52.018;5.576;2024-03-02T15:17:16;13.70;66.20
67820;DHT22;54618;52.018;5.576;2024-03-02T15:19:46;13.60;66.10
67820;DHT22;54618;52.018;5.576;2024-03-02T15:22:12;13.50;66.20
67820;DHT22;54618;52.018;5.576;2024-03-02T15:24:38;13.50;66.20
67820;DHT22;54618;52.018;5.576;2024-03-02T15:27:04;13.50;66.20
67820;DHT22;54618;52.018;5.576;2024-03-02T15:29:31;13.40;65.80
67820;DHT22;54618;52.018;5.576;2024-03-02T15:31:57;13.40;66.50
67820;DHT22;54618;52.018;5.576;2024-03-02T15:34:23;13.30;65.80
67820;DHT22;54618;52.018;5.576;2024-03-02T15:36:49;13.30;66.00
67820;DHT22;54618;52.018;5.576;2024-03-02T15:39:15;13.30;66.30
67820;DHT22;54618;52.018;5.576;2024-03-02T15:41:41;13.30;66.60
67820;DHT22;54618;52.018;5.576;2024-03-02T15:44:09;13.20;66.20
67820;DHT22;54618;52.018;5.576;2024-03-02T15:46:34;13.10;66.20
67820;DHT22;54618;52.018;5.576;2024-03-02T15:49:00;13.10;66.50
67820;DHT22;54618;52.018;5.576;2024-03-02T15:51:26;13.10;66.50